Time;durP1;ratioP1;P1;durP2;ratioP2;P2;SDS_P1;SDS_P2;PMS_P1;PMS_P2;Temp;Humidity;BMP_temperature;BMP_pressure;BME280_temperature;BME280_humidity;BME280_pressure;Samples;Min_cycle;Max_cycle;Signal;HPM_P1;HPM_P2
2021/12/22 00:01:51;;;;;;;1.70;1.27;;;20.00;40.90;;;23.71;27.18;102402.16;5137869;27;20546;-78
2021/12/22 00:04:21;;;;;;;1.55;1.27;;;20.00;40.90;;;23.67;27.43;102393.44;5137462;27;20509;-77
2021/12/22 00:06:46;;;;;;;1.50;1.40;;;20.10;41.00;;;23.67;27.27;102396.09;5119928;27;20054;-78
2021/12/22 00:09:12;;;;;;;1.90;1.60;;;20.10;41.00;;;23.67;27.27;102401.44;5118685;27;20047;-78
2021/12/22 00:11:38;;;;;;;1.50;1.25;;;20.10;41.00;;;23.68;27.27;102399.63;5103283;27;20047;-78
2021/12/22 00:14:04;;;;;;;1.30;1.20;;;20.00;40.90;;;23.71;27.30;102390.59;5137082;27;20547;-78
2021/12/22 00:16:29;;;;;;;1.52;1.27;;;20.10;41.00;;;23.70;27.55;102386.19;5103357;27;20042;-78
2021/12/22 00:18:55;;;;;;;3.63;1.50;;;20.00;41.00;;;23.72;27.30;102395.00;5120356;27;20051;-78
2021/12/22 00:21:21;;;;;;;1.23;1.10;;;20.00;40.90;;;23.70;27.47;102391.53;5137532;27;20134;-78
2021/12/22 00:23:47;;;;;;;4.20;1.40;;;20.00;40.90;;;23.70;27.28;102386.19;5137407;27;20054;-78
2021/12/22 00:26:15;;;;;;;1.35;1.25;;;20.00;40.90;;;23.66;27.39;102378.34;5135632;27;20441;-78
2021/12/22 00:28:41;;;;;;;1.63;1.10;;;20.00;40.90;;;23.67;27.50;102382.75;5119972;27;20050;-78
2021/12/22 00:31:13;;;;;;;2.85;1.58;;;20.10;40.90;;;23.68;27.35;102392.47;5137600;27;20070;-78
2021/12/22 00:33:47;;;;;;;1.65;1.30;;;20.00;40.90;;;23.67;27.32;102387.19;5138156;27;20134;-78
2021/12/22 00:36:16;;;;;;;1.30;1.20;;;20.00;40.90;;;23.68;27.39;102396.94;5102366;27;20047;-78
2021/12/22 00:38:42;;;;;;;1.55;1.17;;;20.00;40.90;;;23.66;27.31;102393.50;5137261;27;20405;-78
2021/12/22 00:41:08;;;;;;;1.23;1.13;;;20.00;40.90;;;23.68;27.52;102397.81;5102316;27;20047;-78
2021/12/22 00:43:34;;;;;;;1.35;1.25;;;20.00;40.90;;;23.67;27.50;102397.88;5137124;27;20054;-78
2021/12/22 00:45:59;;;;;;;2.05;1.45;;;20.00;40.90;;;23.68;27.38;102402.28;5135046;27;20478;-78
2021/12/22 00:48:25;;;;;;;1.73;1.15;;;20.00;40.90;;;23.70;27.29;102402.22;5155490;27;20078;-78
2021/12/22 00:50:51;;;;;;;1.73;1.27;;;20.00;41.00;;;23.67;27.52;102400.53;5120274;27;20504;-78
2021/12/22 00:53:17;;;;;;;2.20;1.38;;;20.00;40.90;;;23.67;27.43;102403.22;5136985;27;20049;-78
2021/12/22 00:55:43;;;;;;;1.35;1.25;;;20.00;41.00;;;23.66;27.27;102398.84;5137239;27;20070;-78
2021/12/22 00:58:09;;;;;;;1.73;1.40;;;20.00;40.90;;;23.67;27.54;102406.78;5136963;27;20103;-77
2021/12/22 01:00:35;;;;;;;1.30;1.20;;;20.00;41.00;;;23.66;27.26;102407.69;5119762;27;20393;-78
2021/12/22 01:03:02;;;;;;;1.50;1.30;;;20.00;40.90;;;23.66;27.36;102409.53;5119800;27;20047;-78
2021/12/22 01:05:29;;;;;;;1.40;1.30;;;20.00;40.90;;;23.66;27.46;102420.19;5102865;27;20497;-78
2021/12/22 01:07:55;;;;;;;1.77;1.30;;;20.00;40.90;;;23.70;27.20;102424.44;5119375;27;20070;-78
2021/12/22 01:10:28;;;;;;;1.33;1.23;;;20.00;40.90;;;23.65;27.34;102413.13;5118211;27;20124;-78
2021/12/22 01:12:59;;;;;;;1.77;1.55;;;20.00;41.00;;;23.65;27.30;102411.31;5136879;27;20482;-78
2021/12/22 01:15:27;;;;;;;1.50;1.30;;;20.00;41.00;;;23.68;27.21;102421.84;5119200;27;20075;-78
2021/12/22 01:18:01;;;;;;;1.67;1.30;;;20.00;41.00;;;23.68;27.60;102423.66;5117326;27;20405;-78
2021/12/22 01:20:32;;;;;;;1.30;1.20;;;20.00;41.00;;;23.67;27.40;102420.13;5103609;27;20054;-78
2021/12/22 01:23:05;;;;;;;;;;;20.00;40.90;;;23.78;27.21;102421.41;5105116;27;20950;-78
2021/12/22 01:25:41;;;;;;;1.30;1.20;;;20.00;41.00;;;23.71;27.28;102423.50;5120071;27;19915;-78
2021/12/22 01:28:07;;;;;;;1.50;1.38;;;20.00;41.00;;;23.68;27.37;102415.66;5120199;27;20047;-78
2021/12/22 01:30:33;;;;;;;1.45;1.35;;;20.00;40.90;;;23.64;27.42;102411.41;5136426;27;20046;-77
2021/12/22 01:33:02;;;;;;;2.30;1.58;;;20.00;40.90;;;23.67;27.43;102419.25;5119332;27;20051;-78
2021/12/22 01:35:31;;;;;;;1.30;1.20;;;20.00;40.90;;;23.64;27.35;102409.59;5118970;27;20046;-78
2021/12/22 01:37:57;;;;;;;1.40;1.30;;;20.00;40.90;;;23.61;27.35;102412.41;5135882;27;20046;-78
2021/12/22 01:40:24;;;;;;;1.33;1.23;;;20.00;40.90;;;23.64;27.32;102420.28;5136367;27;20051;-78
2021/12/22 01:42:54;;;;;;;1.38;1.10;;;20.00;41.00;;;23.63;27.42;102415.84;5136185;27;20051;-78
2021/12/22 01:45:47;;;;;;;1.40;1.30;;;20.00;40.90;;;23.67;27.31;102422.78;5136601;27;20042;-78
2021/12/22 01:51:06;;;;;;;1.20;1.10;;;20.00;40.90;;;23.65;27.39;102418.47;5121621;27;20053;-78
2021/12/22 01:53:41;;;;;;;1.20;1.10;;;20.00;41.00;;;23.62;27.43;102416.81;5135655;27;20410;-78
2021/12/22 01:56:20;;;;;;;2.10;1.42;;;20.00;41.00;;;23.63;27.33;102412.34;5118992;27;20042;-78
2021/12/22 01:58:51;;;;;;;1.52;1.17;;;20.00;41.50;;;23.62;27.38;102410.59;5119203;27;20380;-78
2021/12/22 02:01:18;;;;;;;2.20;1.65;;;20.00;40.90;;;23.66;27.27;102422.88;5119097;27;20053;-77
2021/12/22 02:03:46;;;;;;;1.92;1.27;;;20.00;40.90;;;23.64;27.57;102414.94;5101819;27;20053;-78
2021/12/22 02:06:12;;;;;;;1.73;1.60;;;20.00;40.90;;;23.63;27.46;102415.84;5136168;27;20070;-77
2021/12/22 02:08:39;;;;;;;1.20;1.10;;;20.00;40.90;;;23.60;27.24;102413.34;5118516;27;20137;-77
2021/12/22 02:11:07;;;;;;;1.60;1.20;;;20.00;40.90;;;23.65;27.40;102419.31;5135740;27;20039;-78
2021/12/22 02:13:38;;;;;;;1.20;1.10;;;20.00;40.90;;;23.63;27.41;102407.00;5117549;27;20089;-77
2021/12/22 02:16:09;;;;;;;1.95;1.20;;;19.90;40.90;;;23.61;27.31;102404.41;5119293;27;20055;-77
2021/12/22 02:18:40;;;;;;;1.60;1.48;;;20.00;40.90;;;23.64;27.29;102417.59;5102489;27;20050;-77
2021/12/22 02:21:06;;;;;;;1.83;1.30;;;20.00;40.90;;;23.65;27.36;102411.31;5118085;27;20043;-77
2021/12/22 02:23:33;;;;;;;1.67;1.25;;;20.00;40.90;;;23.64;27.35;102419.41;5135783;27;20050;-78
2021/12/22 02:26:10;;;;;;;1.38;1.15;;;20.00;40.90;;;23.63;27.29;102413.19;5118493;27;20049;-77
2021/12/22 02:28:39;;;;;;;1.63;1.50;;;20.00;40.90;;;23.64;27.21;102406.91;5122861;27;20051;-78
2021/12/22 02:31:04;;;;;;;1.20;1.10;;;20.00;40.90;;;23.61;27.30;102400.88;5121617;27;20501;-78
2021/12/22 02:33:38;;;;;;;1.83;1.35;;;20.00;40.90;;;23.64;27.28;102406.06;5139318;27;20039;-78
2021/12/22 02:36:21;;;;;;;2.03;1.45;;;20.00;40.90;;;23.65;27.28;102413.13;5106422;27;20499;-78
2021/12/22 02:38:53;;;;;;;1.70;1.25;;;20.00;40.80;;;23.64;27.35;102406.91;5141357;27;20058;-78
2021/12/22 02:41:25;;;;;;;1.33;1.23;;;20.00;40.80;;;23.64;27.42;102409.59;5139126;27;20046;-78
2021/12/22 02:43:54;;;;;;;1.45;1.35;;;20.00;40.80;;;23.64;27.41;102404.25;5122057;27;20390;-78
2021/12/22 02:46:24;;;;;;;1.63;1.30;;;20.00;40.80;;;23.64;27.43;102401.59;5138120;27;20176;-78
2021/12/22 02:48:51;;;;;;;1.63;1.35;;;20.00;40.80;;;23.67;27.57;102406.78;5139005;27;20084;-78
2021/12/22 02:51:19;;;;;;;1.40;1.30;;;20.00;40.80;;;23.68;27.48;102410.31;5138732;27;20042;-78
2021/12/22 02:53:59;;;;;;;2.42;1.50;;;20.10;40.80;;;23.68;27.39;102402.28;5121836;27;20114;-78
2021/12/22 02:56:37;;;;;;;1.70;1.30;;;20.10;40.80;;;23.67;27.22;102404.09;5123501;27;20623;-78
2021/12/22 03:02:08;;;;;;;1.20;1.10;;;20.10;40.80;;;23.72;27.27;102408.34;5141900;27;20095;-78
2021/12/22 03:04:43;;;;;;;1.55;1.10;;;20.10;40.70;;;23.72;27.28;102403.00;5122925;27;20104;-78
2021/12/22 03:07:14;;;;;;;2.88;1.52;;;20.10;40.70;;;23.75;27.25;102397.50;5122235;27;20080;-78
2021/12/22 03:09:40;;;;;;;1.63;1.38;;;20.10;40.70;;;23.73;27.34;102402.94;5137591;27;20043;-78
2021/12/22 03:12:12;;;;;;;1.38;1.27;;;20.20;40.70;;;23.71;27.35;102394.13;5136961;27;20055;-77
2021/12/22 03:14:39;;;;;;;1.25;1.15;;;20.10;40.60;;;23.77;27.31;102398.28;5086257;27;20051;-78
2021/12/22 03:17:05;;;;;;;2.08;1.20;;;20.10;40.60;;;23.74;27.54;102396.66;5136532;27;20095;-78
2021/12/22 03:19:35;;;;;;;3.08;1.52;;;20.20;40.60;;;23.77;27.43;102393.84;5155089;27;20190;-78
2021/12/22 03:22:06;;;;;;;1.48;1.23;;;20.20;40.50;;;23.79;27.11;102405.31;5137721;27;20055;-78
2021/12/22 03:24:34;;;;;;;1.27;1.17;;;20.20;40.50;;;23.79;27.29;102399.97;5104233;27;20055;-78
2021/12/22 03:27:02;;;;;;;1.17;1.10;;;20.20;40.50;;;23.80;27.30;102403.50;5120250;27;20414;-78
2021/12/22 03:29:30;;;;;;;1.20;1.10;;;20.20;40.50;;;23.82;27.27;102404.31;5119799;27;20050;-78
2021/12/22 03:31:56;;;;;;;1.40;1.30;;;20.20;40.50;;;23.82;27.21;102404.31;5119606;27;20502;-78
2021/12/22 03:34:22;;;;;;;1.95;1.50;;;20.20;40.50;;;23.80;27.29;102396.31;5137753;27;20047;-78
2021/12/22 03:36:48;;;;;;;1.35;1.20;;;20.20;40.50;;;23.82;27.26;102391.84;5138202;27;20038;-78
2021/12/22 03:39:15;;;;;;;1.55;1.20;;;20.20;40.50;;;23.83;27.23;102398.88;5101440;27;20051;-78
2021/12/22 03:41:43;;;;;;;2.22;1.60;;;20.20;40.50;;;23.83;27.17;102396.22;5138057;27;20046;-78
2021/12/22 03:44:09;;;;;;;1.50;1.30;;;20.20;40.50;;;23.83;27.02;102398.88;5120842;27;20102;-78
2021/12/22 03:46:36;;;;;;;1.58;1.20;;;20.20;40.50;;;23.84;27.30;102403.28;5120861;27;20035;-78
2021/12/22 03:49:05;;;;;;;1.27;1.17;;;20.20;40.40;;;23.82;27.19;102397.19;5104552;27;20052;-77
2021/12/22 03:51:31;;;;;;;1.20;1.10;;;20.20;40.50;;;23.88;27.03;102400.47;5120862;27;20438;-78
2021/12/22 03:53:57;;;;;;;1.50;1.25;;;20.20;40.50;;;23.86;27.21;102401.41;5137869;27;20050;-78
2021/12/22 03:56:23;;;;;;;1.80;1.40;;;20.20;40.50;;;23.84;27.22;102397.97;5121348;27;20046;-78
2021/12/22 03:58:49;;;;;;;1.63;1.52;;;20.20;40.50;;;23.86;26.95;102397.88;5137730;27;20054;-78
2021/12/22 04:01:15;;;;;;;1.60;1.40;;;20.20;40.50;;;23.85;27.26;102391.66;5156403;27;20054;-78
2021/12/22 04:03:44;;;;;;;1.35;1.20;;;20.20;40.50;;;23.84;27.05;102392.63;5120530;27;20402;-78
2021/12/22 04:06:09;;;;;;;1.75;1.40;;;20.20;40.40;;;23.86;27.09;102393.41;5120935;27;20434;-78
2021/12/22 04:08:35;;;;;;;1.20;1.10;;;20.20;40.40;;;23.87;27.16;102396.91;5137521;27;20053;-78
2021/12/22 04:11:01;;;;;;;1.88;1.10;;;20.20;40.40;;;23.85;27.20;102388.13;5120903;27;20130;-78
2021/12/22 04:13:27;;;;;;;1.33;1.23;;;20.20;40.40;;;23.86;27.33;102396.06;5103665;27;20122;-77
2021/12/22 04:15:52;;;;;;;1.40;1.30;;;20.20;40.40;;;23.86;27.10;102392.53;5120515;27;20046;-78
2021/12/22 04:18:20;;;;;;;1.20;1.10;;;20.20;40.40;;;23.86;26.99;102382.72;5103720;27;20047;-78
2021/12/22 04:20:46;;;;;;;1.50;1.30;;;20.30;40.40;;;23.85;27.11;102391.66;5137335;27;20050;-78
2021/12/22 04:23:12;;;;;;;1.35;1.25;;;20.20;40.40;;;23.90;26.97;102388.75;5120260;27;20144;-78
2021/12/22 04:25:38;;;;;;;2.72;1.60;;;20.20;40.40;;;23.87;26.93;102388.91;5137507;27;20043;-78
2021/12/22 04:28:09;;;;;;;1.30;1.20;;;20.20;40.40;;;23.86;27.13;102380.03;5120118;27;20400;-78
2021/12/22 04:30:42;;;;;;;1.73;1.50;;;20.20;40.40;;;23.86;27.14;102377.38;5135721;27;20058;-78
2021/12/22 04:33:08;;;;;;;2.15;1.30;;;20.20;40.40;;;23.88;27.09;102393.31;5120644;27;20050;-78
2021/12/22 04:35:34;;;;;;;1.83;1.25;;;20.20;40.40;;;23.88;27.09;102390.66;5120074;27;20466;-78
2021/12/22 04:38:01;;;;;;;1.27;1.20;;;20.20;40.40;;;23.85;26.96;102377.44;5137260;27;20054;-78
2021/12/22 04:40:27;;;;;;;1.20;1.10;;;20.20;40.40;;;23.88;27.06;102381.78;5136122;27;20039;-78
2021/12/22 04:42:52;;;;;;;1.48;1.27;;;20.20;40.40;;;23.86;27.07;102376.50;5137170;27;20115;-77
2021/12/22 04:45:18;;;;;;;1.40;1.30;;;20.20;40.40;;;23.86;27.04;102373.84;5137131;27;20058;-78
2021/12/22 04:47:46;;;;;;;1.50;1.40;;;20.20;40.40;;;23.88;27.02;102382.63;5137693;27;20106;-78
2021/12/22 04:50:17;;;;;;;1.55;1.42;;;20.20;40.40;;;23.84;26.96;102373.06;5103707;27;20051;-77
2021/12/22 04:52:53;;;;;;;1.30;1.20;;;20.20;40.40;;;23.87;26.96;102372.88;5135246;27;20517;-78
2021/12/22 04:55:19;;;;;;;1.38;1.27;;;20.20;40.40;;;23.86;26.99;102377.38;5138059;27;20070;-78
2021/12/22 04:57:45;;;;;;;1.42;1.33;;;20.20;40.40;;;23.86;27.22;102379.19;5119663;27;20133;-77
2021/12/22 05:00:14;;;;;;;1.48;1.30;;;20.20;40.40;;;23.85;27.08;102375.63;5102437;27;20508;-77
2021/12/22 05:02:40;;;;;;;1.50;1.40;;;20.20;40.40;;;23.84;26.99;102373.91;5119758;27;20512;-78
2021/12/22 05:05:07;;;;;;;1.55;1.40;;;20.20;40.40;;;23.88;27.19;102385.31;5134843;27;20087;-78
2021/12/22 05:07:33;;;;;;;1.58;1.30;;;20.20;40.40;;;23.85;26.98;102372.09;5119808;27;20071;-78
2021/12/22 05:09:58;;;;;;;1.30;1.20;;;20.20;40.40;;;23.86;26.92;102377.38;5135457;27;20061;-78
2021/12/22 05:12:24;;;;;;;1.85;1.42;;;20.20;40.40;;;23.86;26.89;102377.38;5119932;27;20043;-78
2021/12/22 05:14:52;;;;;;;1.60;1.48;;;20.20;40.40;;;23.84;27.06;102370.38;5102456;27;20043;-77
2021/12/22 05:17:22;;;;;;;1.83;1.17;;;20.20;40.40;;;23.84;27.02;102373.06;5119658;27;20494;-78
2021/12/22 05:19:48;;;;;;;1.77;1.63;;;20.20;40.40;;;23.85;26.94;102375.63;5119530;27;20390;-78
2021/12/22 05:22:14;;;;;;;1.83;1.50;;;20.20;40.40;;;23.85;27.13;102372.94;5117981;27;20051;-78
2021/12/22 05:24:40;;;;;;;1.48;1.38;;;20.10;40.40;;;23.82;26.89;102365.13;5134881;27;20376;-78
2021/12/22 05:27:08;;;;;;;1.55;1.20;;;20.10;40.40;;;23.83;27.07;102368.66;5135784;27;20154;-78
2021/12/22 05:29:34;;;;;;;1.40;1.30;;;20.20;40.50;;;23.84;27.13;102365.03;5118436;27;20086;-78
2021/12/22 05:32:03;;;;;;;1.20;1.10;;;20.10;40.40;;;23.82;26.97;102365.13;5134563;27;20505;-78
2021/12/22 05:34:29;;;;;;;1.52;1.30;;;20.10;40.50;;;23.81;26.96;102365.16;5117548;27;20050;-78
2021/12/22 05:36:55;;;;;;;1.30;1.20;;;20.10;40.40;;;23.80;27.06;102364.28;5136382;27;20051;-78
2021/12/22 05:39:21;;;;;;;2.05;1.48;;;20.10;40.90;;;23.82;27.06;102367.78;5117610;27;20047;-78
2021/12/22 05:41:47;;;;;;;1.92;1.50;;;20.20;41.00;;;23.80;26.99;102360.75;5117096;27;20138;-78
2021/12/22 05:44:12;;;;;;;2.55;1.48;;;20.10;40.40;;;23.81;27.00;102366.03;5118735;27;20129;-78
2021/12/22 05:46:38;;;;;;;1.58;1.33;;;20.10;40.40;;;23.83;27.12;102371.31;5102204;27;20049;-78
2021/12/22 05:49:04;;;;;;;1.40;1.30;;;20.10;40.40;;;23.84;26.90;102375.72;5134444;27;20058;-78
2021/12/22 05:51:33;;;;;;;1.23;1.13;;;20.10;40.40;;;23.80;27.12;102372.28;5117198;27;20047;-78
2021/12/22 05:53:59;;;;;;;1.40;1.30;;;20.10;40.40;;;23.81;27.18;102365.16;5133807;28;20497;-78
2021/12/22 05:56:30;;;;;;;1.83;1.50;;;20.10;40.40;;;23.81;26.89;102371.34;5115421;28;20043;-78
2021/12/22 05:58:56;;;;;;;1.77;1.23;;;20.20;40.50;;;23.80;26.93;102369.63;5099392;28;20055;-78
2021/12/22 06:01:22;;;;;;;1.33;1.23;;;20.10;40.90;;;23.81;26.96;102368.69;5098297;28;20043;-78
2021/12/22 06:03:48;;;;;;;1.17;1.08;;;20.10;40.40;;;23.80;27.12;102372.28;5095910;28;20052;-78
2021/12/22 06:06:14;;;;;;;1.05;1.05;;;20.20;40.50;;;23.80;26.99;102368.75;5115268;28;20066;-78
2021/12/22 06:08:40;;;;;;;1.65;1.33;;;20.20;40.50;;;23.82;27.17;102369.56;5098217;28;20049;-78
2021/12/22 06:11:06;;;;;;;1.48;1.35;;;20.10;40.40;;;23.79;27.21;102364.34;5115120;28;20043;-78
2021/12/22 06:13:32;;;;;;;1.67;1.50;;;20.20;40.40;;;23.80;27.13;102358.09;5046704;28;20483;-78
2021/12/22 06:15:58;;;;;;;1.50;1.40;;;20.10;40.30;;;23.80;27.07;102356.25;5077988;28;20058;-78
2021/12/22 06:18:24;;;;;;;1.38;1.27;;;20.20;40.40;;;23.82;27.10;102359.78;5094814;28;20055;-77
2021/12/22 06:20:50;;;;;;;1.50;1.30;;;20.20;40.40;;;23.82;27.04;102356.22;5094740;28;20043;-78
2021/12/22 06:23:16;;;;;;;1.20;1.10;;;20.20;40.40;;;23.80;27.12;102355.41;5095343;28;20052;-78
2021/12/22 06:25:41;;;;;;;1.25;1.13;;;20.10;40.30;;;23.82;26.89;102358.91;5077850;28;20043;-78
2021/12/22 06:28:07;;;;;;;1.35;1.25;;;20.20;40.40;;;23.81;27.00;102354.47;5092679;28;20170;-78
2021/12/22 06:30:34;;;;;;;1.30;1.20;;;20.20;40.40;;;23.80;27.03;102352.75;5095225;28;20391;-78
2021/12/22 06:33:00;;;;;;;1.27;1.17;;;20.10;40.40;;;23.78;26.94;102339.47;5094564;28;20097;-78
2021/12/22 06:35:26;;;;;;;1.30;1.20;;;20.20;40.40;;;23.81;27.13;102350.00;5078035;28;20469;-78
2021/12/22 06:37:52;;;;;;;1.35;1.25;;;20.10;40.40;;;23.78;26.99;102352.81;5094424;28;20079;-78
2021/12/22 06:40:19;;;;;;;1.20;1.10;;;20.10;40.30;;;23.81;26.97;102363.34;5094752;28;20055;-78
2021/12/22 06:42:45;;;;;;;1.20;1.10;;;20.20;40.40;;;23.79;26.73;102362.56;5093307;28;20048;-78
2021/12/22 06:45:13;;;;;;;1.80;1.40;;;20.10;40.30;;;23.80;26.89;102358.94;5113042;28;20040;-78
2021/12/22 06:47:41;;;;;;;1.27;1.17;;;20.20;40.30;;;23.79;27.05;102356.34;5094116;28;20043;-78
2021/12/22 06:50:08;;;;;;;1.17;1.13;;;20.20;40.30;;;23.80;26.91;102356.25;5078008;28;20092;-78
2021/12/22 06:52:33;;;;;;;1.88;1.52;;;20.10;40.30;;;23.82;27.03;102359.78;5077467;28;20074;-78
2021/12/22 06:55:00;;;;;;;1.88;1.45;;;20.20;40.30;;;23.79;26.96;102353.66;5113156;28;20476;-78
2021/12/22 06:57:29;;;;;;;1.30;1.20;;;20.10;40.20;;;23.81;27.08;102359.81;5075143;28;20044;-78
2021/12/22 06:59:57;;;;;;;1.27;1.17;;;20.10;40.30;;;23.81;27.02;102357.16;5077208;28;20502;-78
2021/12/22 07:02:25;;;;;;;1.50;1.40;;;20.10;40.30;;;23.79;26.89;102348.31;5094529;28;20063;-78
2021/12/22 07:04:52;;;;;;;1.30;1.20;;;20.10;40.80;;;23.80;27.13;102358.94;5077593;28;20469;-78
2021/12/22 07:07:17;;;;;;;1.52;1.42;;;20.10;40.30;;;23.77;26.88;102345.75;5094119;28;20047;-78
2021/12/22 07:09:43;;;;;;;1.35;1.25;;;20.10;40.30;;;23.79;27.01;102346.53;5112143;28;20052;-78
2021/12/22 07:12:10;;;;;;;1.35;1.20;;;20.10;40.30;;;23.81;26.98;102354.47;5092865;28;20056;-78
2021/12/22 07:14:36;;;;;;;1.40;1.30;;;20.10;40.30;;;23.76;26.96;102341.34;5076322;28;20074;-78
2021/12/22 07:17:02;;;;;;;1.67;1.52;;;20.10;40.30;;;23.78;27.00;102344.81;5078389;28;20410;-78
2021/12/22 07:19:28;;;;;;;1.35;1.25;;;20.20;40.40;;;23.78;26.99;102347.47;5079657;28;20055;-78
2021/12/22 07:21:55;;;;;;;1.50;1.40;;;20.10;40.30;;;23.80;26.91;102350.91;5115120;28;20079;-78
2021/12/22 07:24:22;;;;;;;2.88;1.67;;;20.10;40.30;;;23.77;27.02;102352.88;5078283;28;20052;-78
2021/12/22 07:26:48;;;;;;;2.58;1.27;;;20.10;40.20;;;23.79;26.84;102349.22;5080511;28;20091;-78
2021/12/22 07:29:14;;;;;;;1.23;1.13;;;20.10;40.30;;;23.81;26.82;102362.50;5079765;28;20097;-78
2021/12/22 07:31:39;;;;;;;1.92;1.33;;;20.10;40.30;;;23.77;26.90;102348.44;5063645;28;20406;-78
2021/12/22 07:34:28;;;;;;;1.30;1.20;;;20.10;40.30;;;23.78;26.93;102352.81;5097537;28;20048;-78
2021/12/22 07:37:19;;;;;;;1.10;1.10;;;20.10;40.30;;;23.76;26.96;102346.69;5078464;28;20568;-78
2021/12/22 07:39:46;;;;;;;1.30;1.20;;;20.10;40.30;;;23.77;26.80;102348.44;5078523;28;20055;-78
2021/12/22 07:42:11;;;;;;;1.88;1.30;;;20.10;40.30;;;23.79;26.93;102349.22;5095690;28;20395;-78
2021/12/22 07:44:37;;;;;;;1.70;1.30;;;20.20;40.30;;;23.76;26.92;102341.34;5097293;28;20052;-78
2021/12/22 07:47:03;;;;;;;1.25;1.15;;;20.10;40.20;;;23.78;27.05;102333.25;5096047;28;20040;-78
2021/12/22 07:49:29;;;;;;;1.55;1.45;;;20.10;40.20;;;23.77;27.03;102340.41;5078554;28;20127;-78
2021/12/22 07:51:55;;;;;;;1.20;1.10;;;20.10;40.30;;;23.78;26.98;102343.94;5096917;28;20460;-78
2021/12/22 07:54:20;;;;;;;1.42;1.33;;;20.10;40.30;;;23.78;27.03;102338.59;5115210;28;20051;-78
2021/12/22 07:56:46;;;;;;;1.55;1.30;;;20.10;40.20;;;23.74;27.06;102334.34;5115805;28;20051;-78
2021/12/22 07:59:12;;;;;;;1.30;1.20;;;20.20;40.30;;;23.79;27.02;102343.88;5094858;28;20052;-78
2021/12/22 08:01:38;;;;;;;1.20;1.10;;;20.20;40.30;;;23.77;27.00;102343.09;5096906;28;20464;-78
2021/12/22 08:04:03;;;;;;;1.40;1.25;;;20.10;40.20;;;23.82;27.04;102345.53;5079112;28;20449;-78
2021/12/22 08:06:29;;;;;;;1.38;1.25;;;20.10;40.20;;;23.79;27.08;102338.53;5115109;28;20048;-77
2021/12/22 08:08:55;;;;;;;1.40;1.30;;;20.10;40.20;;;23.75;27.01;102336.94;5079635;28;20047;-78
2021/12/22 08:11:21;;;;;;;1.45;1.30;;;20.10;40.20;;;23.80;27.01;102347.41;5062988;28;20044;-78
2021/12/22 08:13:47;;;;;;;1.52;1.42;;;20.10;40.20;;;23.79;27.02;102337.63;5115482;28;20049;-78
2021/12/22 08:16:13;;;;;;;1.27;1.17;;;20.20;40.20;;;23.82;26.95;102338.41;5097187;28;20048;-78
2021/12/22 08:18:39;;;;;;;1.20;1.10;;;20.20;40.20;;;23.81;26.93;102338.47;5079449;28;21045;-77
2021/12/22 08:21:04;;;;;;;1.35;1.20;;;20.20;40.20;;;23.81;26.77;102344.66;5061032;28;20051;-78
2021/12/22 08:23:30;;;;;;;1.50;1.40;;;20.20;40.10;;;23.84;26.96;102344.53;5094761;28;20044;-78
2021/12/22 08:25:56;;;;;;;1.55;1.30;;;20.20;40.10;;;23.84;26.83;102339.19;5079108;28;20050;-78
2021/12/22 08:28:22;;;;;;;1.33;1.23;;;20.20;40.10;;;23.86;26.89;102344.47;5096055;28;20139;-78
2021/12/22 08:30:48;;;;;;;1.60;1.50;;;20.30;40.10;;;23.85;26.95;102337.38;5094793;28;20040;-78
2021/12/22 08:33:21;;;;;;;1.40;1.30;;;20.30;40.00;;;23.88;26.83;102339.03;5079855;28;20111;-78
2021/12/22 08:38:57;;;;;;;1.55;1.40;;;20.30;39.90;;;23.90;26.85;102342.50;5096582;28;20483;-78
2021/12/22 08:41:34;;;;;;;1.58;1.40;;;20.30;39.90;;;23.91;26.88;102352.25;5081546;28;20051;-78
2021/12/22 08:44:07;;;;;;;2.08;1.30;;;20.40;40.00;;;23.93;26.89;102347.69;5079439;28;20075;-78
2021/12/22 08:46:35;;;;;;;1.52;1.27;;;20.40;39.90;;;23.93;26.94;102340.53;5077317;28;20043;-78
2021/12/22 08:49:03;;;;;;;1.20;1.10;;;20.40;39.90;;;23.94;26.86;102344.03;5096097;28;20104;-78
2021/12/22 08:51:29;;;;;;;1.50;1.40;;;20.30;39.90;;;23.94;26.68;102342.25;5079055;28;20043;-78
2021/12/22 08:53:55;;;;;;;1.55;1.17;;;20.40;39.90;;;23.96;26.75;102350.19;5096314;28;20043;-78
2021/12/22 08:56:22;;;;;;;1.30;1.20;;;20.40;39.90;;;23.96;26.87;102355.53;5077173;28;20056;-78
2021/12/22 08:58:48;;;;;;;1.52;1.42;;;20.40;39.90;;;23.95;26.79;102345.78;5076978;28;20422;-78
2021/12/22 09:01:14;;;;;;;1.80;1.30;;;20.40;39.80;;;23.95;26.73;102343.97;5096156;28;20407;-78
2021/12/22 09:03:40;;;;;;;1.52;1.40;;;20.40;39.80;;;23.94;26.91;102342.25;5096123;28;20044;-78
2021/12/22 09:06:06;;;;;;;1.50;1.40;;;20.40;39.80;;;23.99;26.81;102342.88;5093977;28;20055;-78
2021/12/22 09:08:32;;;;;;;1.48;1.38;;;20.40;39.80;;;24.00;26.86;102349.94;5095832;28;20511;-78
2021/12/22 09:10:57;;;;;;;1.70;1.52;;;20.40;39.80;;;24.00;26.52;102343.75;5094813;28;20036;-78
2021/12/22 09:13:24;;;;;;;1.60;1.30;;;20.40;39.80;;;24.04;26.57;102359.53;5078635;28;20088;-78
2021/12/22 09:15:50;;;;;;;1.20;1.10;;;20.40;39.70;;;24.03;26.76;102346.25;5093497;28;20054;-78
2021/12/22 09:18:17;;;;;;;1.30;1.20;;;20.40;39.70;;;24.02;26.79;102347.19;5078273;28;20056;-78
2021/12/22 09:20:43;;;;;;;1.20;1.10;;;20.40;39.80;;;24.00;26.58;102349.09;5095366;28;20051;-78
2021/12/22 09:23:08;;;;;;;1.27;1.17;;;20.40;39.80;;;23.99;26.62;102342.88;5113871;28;20055;-78
2021/12/22 09:25:34;;;;;;;1.20;1.10;;;20.40;39.70;;;24.03;26.76;102352.47;5095830;28;20117;-78
2021/12/22 09:28:02;;;;;;;1.83;1.40;;;20.40;39.70;;;24.03;26.67;102352.47;5095381;28;20069;-78
2021/12/22 09:30:35;;;;;;;1.25;1.00;;;20.40;39.70;;;24.03;26.71;102349.78;5095411;28;20047;-78
2021/12/22 09:33:07;;;;;;;1.30;1.20;;;20.40;39.70;;;23.99;26.73;102342.88;5079257;28;20357;-78
2021/12/22 09:35:34;;;;;;;1.27;1.17;;;20.40;39.70;;;24.05;26.63;102360.41;5078690;28;20112;-78
2021/12/22 09:37:59;;;;;;;0.98;0.90;;;20.40;39.70;;;24.03;26.58;102355.13;5077684;28;20039;-78
2021/12/22 09:40:25;;;;;;;1.33;1.23;;;20.40;39.70;;;24.04;26.56;102353.34;5095384;28;20055;-78
2021/12/22 09:42:52;;;;;;;1.50;1.40;;;20.40;39.70;;;24.08;26.63;102356.72;5113545;28;20113;-78
2021/12/22 09:45:19;;;;;;;1.17;1.08;;;20.40;39.70;;;24.03;26.50;102349.78;5078233;28;20402;-78
2021/12/22 09:48:14;;;;;;;1.98;1.30;;;20.40;39.70;;;24.04;26.53;102350.66;5078428;28;20047;-78
2021/12/22 09:50:50;;;;;;;1.75;1.45;;;20.40;39.70;;;24.05;26.63;102355.91;5113494;28;20097;-78
2021/12/22 09:53:24;;;;;;;2.50;1.50;;;20.40;39.70;;;24.05;26.53;102344.38;5062451;28;20093;-78
2021/12/22 09:55:51;;;;;;;1.40;1.30;;;20.40;39.60;;;24.06;26.52;102351.44;5113124;28;20044;-78
2021/12/22 09:58:17;;;;;;;1.30;1.20;;;20.40;39.60;;;24.07;26.62;102361.19;5078122;28;20078;-78
2021/12/22 10:00:45;;;;;;;1.42;1.17;;;20.40;39.60;;;24.04;26.53;102353.34;5078341;28;20092;-78
2021/12/22 10:03:11;;;;;;;1.63;1.52;;;20.40;39.60;;;24.05;26.36;102349.72;5095017;28;20073;-78
2021/12/22 10:05:40;;;;;;;1.20;1.08;;;20.40;39.60;;;24.06;26.69;102354.13;5094736;28;20131;-78
2021/12/22 10:08:23;;;;;;;1.52;1.25;;;20.40;39.60;;;24.04;26.49;102353.34;5078022;28;20055;-78
2021/12/22 10:11:09;;;;;;;1.55;1.45;;;20.40;40.20;;;24.03;26.64;102352.47;5077982;28;20122;-78
2021/12/22 10:13:39;;;;;;;1.67;1.48;;;20.40;39.60;;;24.05;26.57;102349.72;5077700;28;20050;-78
2021/12/22 10:16:23;;;;;;;2.38;1.50;;;20.40;39.60;;;24.05;26.72;102355.06;5077762;28;20036;-78
2021/12/22 10:19:08;;;;;;;1.75;1.30;;;20.40;39.60;;;24.00;26.58;102341.91;5061022;28;20048;-78
2021/12/22 10:21:37;;;;;;;1.50;1.40;;;20.40;39.70;;;24.04;26.46;102348.84;5078083;28;20398;-78
2021/12/22 10:24:06;;;;;;;1.55;1.45;;;20.40;39.60;;;24.04;26.71;102350.66;5076692;28;20044;-78
2021/12/22 10:26:33;;;;;;;1.63;1.27;;;20.50;39.70;;;24.04;26.64;102353.34;5112902;28;20046;-78